Andrews, TX (79714)

9:51 AM CDT on April 27, 2017 (GMT -0500)
NW Andrews | | Change Station
Active Advisory: Wind Advisory

Elev 3199 ft 32.33 °N, 102.57 °W | Updated 7 minutes ago

Clear
Clear
67.3 °F
Feels Like 67.3 °F
N
5.0
Wind Variable Wind from WSW

Today
High -- | Low -- °F
--% Chance of Precip.
Yesterday
High -- | Low -- °F
Precip. -- in
Pressure 29.71 in
Visibility 10.0 miles
Clouds Clear
Dew Point 36 °F
Humidity 31%
Rainfall 0.00 in
Snow Depth Not available.
7:07 AM 8:28 PM
New Moon, 2% visible
METAR KE11 271435Z AUTO 22011KT 10SM CLR 19/01 A2971 RMK AO2 T01920008
Pressure 29.71 in
Visibility 10.0 miles
Clouds Clear
Dew Point 36 °F
Humidity 31%
Rainfall 0.00 in
Snow Depth Not available.
7:07 AM 8:28 PM
New Moon, 2% visible
METAR KE11 271435Z AUTO 22011KT 10SM CLR 19/01 A2971 RMK AO2 T01920008

Get Your Daily Forecast Email!

Thanks for signing up!

Be on the lookout for a verification email in your inbox.

You'll start receiving severe weather alerts in your inbox..

×

10-Day Weather Forecast

Almanac

Astronomy

Apr. 27, 2017 Rise Set
Actual Time
Civil Twilight
Nautical Twilight
Astronomical Twilight
Moon
Length of Visible Light
Length of Day
Tomorrow will be .
, % of the Moon is Illuminated

Today's Extremes

State Highs State Lows

Community

WunderPhotos

WunderBlog® & News

Nearby

Air Quality

  Air Quality AQ Index Pollutant
Not available.

Snow Depth

Station Depth Elevation

Earthquake Activity

City Distance Mag. Time & Date
Minimum magnitude displayed is 2.5.

Coastal Water Temperatures

Place Temperature

Stations

Nearby Weather Stations

Station Location Temp. Windchill Dew Point Humidity Wind Precip. Elev Updated Type
                   

Watches & Warnings

Wind Advisory
Issued: 3:15 AM MDT Apr. 27, 2017 – National Weather Service

... Wind Advisory in effect from noon CDT /11 am MDT/ today to
8 PM CDT /7 PM MDT/ this evening...

* timing... this afternoon.

* Winds... southwest 25 to 40 mph with gusts to 55 mph.

* Impacts... motorists should exercise caution while driving. Be
alert to sudden gusts of wind which may cause you to lose
control of your vehicle.

Precautionary/preparedness actions...

A Wind Advisory means that winds of 30 mph are expected. Winds
this strong can make driving difficult, especially for high
profile vehicles. Use extra caution.



Rhluchan